sensor_id;sensor_type;location;lat;lon;timestamp;pressure;altitude;pressure_sealevel;temperature
68440;BMP180;55421;51.600;5.718;2023-02-28T00:01:33;213958.80;;;-0.80
68440;BMP180;55421;51.600;5.718;2023-02-28T00:03:59;213925.59;;;-0.90
68440;BMP180;55421;51.600;5.718;2023-02-28T00:06:26;213906.80;;;-0.90
68440;BMP180;55421;51.600;5.718;2023-02-28T00:08:53;213904.80;;;-0.90
68440;BMP180;55421;51.600;5.718;2023-02-28T00:11:20;213908.41;;;-0.90
68440;BMP180;55421;51.600;5.718;2023-02-28T00:13:48;213920.80;;;-0.90
68440;BMP180;55421;51.600;5.718;2023-02-28T00:16:19;213924.00;;;-0.90
68440;BMP180;55421;51.600;5.718;2023-02-28T00:18:47;213912.80;;;-0.90
68440;BMP180;55421;51.600;5.718;2023-02-28T00:21:15;213905.20;;;-0.90
68440;BMP180;55421;51.600;5.718;2023-02-28T00:23:42;213874.41;;;-0.92
68440;BMP180;55421;51.600;5.718;2023-02-28T00:26:08;213858.00;;;-1.00
68440;BMP180;55421;51.600;5.718;2023-02-28T00:28:35;213833.59;;;-1.00
68440;BMP180;55421;51.600;5.718;2023-02-28T00:31:02;213820.41;;;-1.10
68440;BMP180;55421;51.600;5.718;2023-02-28T00:33:28;213826.00;;;-1.10
68440;BMP180;55421;51.600;5.718;2023-02-28T00:36:08;213840.80;;;-1.00
68440;BMP180;55421;51.600;5.718;2023-02-28T00:38:34;213847.59;;;-1.00
68440;BMP180;55421;51.600;5.718;2023-02-28T00:41:01;213846.41;;;-1.00
68440;BMP180;55421;51.600;5.718;2023-02-28T00:43:36;213839.20;;;-1.00
68440;BMP180;55421;51.600;5.718;2023-02-28T00:46:03;213828.80;;;-1.00
68440;BMP180;55421;51.600;5.718;2023-02-28T00:48:30;213819.20;;;-1.10
68440;BMP180;55421;51.600;5.718;2023-02-28T00:50:56;213797.80;;;-1.10
68440;BMP180;55421;51.600;5.718;2023-02-28T00:53:23;213774.80;;;-1.12
68440;BMP180;55421;51.600;5.718;2023-02-28T00:55:50;213770.41;;;-1.18
68440;BMP180;55421;51.600;5.718;2023-02-28T00:58:17;213788.41;;;-1.10
68440;BMP180;55421;51.600;5.718;2023-02-28T01:00:43;213801.00;;;-1.10
68440;BMP180;55421;51.600;5.718;2023-02-28T01:03:20;213815.59;;;-1.10
68440;BMP180;55421;51.600;5.718;2023-02-28T01:05:47;213811.41;;;-1.10
68440;BMP180;55421;51.600;5.718;2023-02-28T01:08:14;213799.00;;;-1.10
68440;BMP180;55421;51.600;5.718;2023-02-28T01:10:41;213778.20;;;-1.10
68440;BMP180;55421;51.600;5.718;2023-02-28T01:13:08;213746.41;;;-1.20
68440;BMP180;55421;51.600;5.718;2023-02-28T01:15:34;213719.59;;;-1.20
68440;BMP180;55421;51.600;5.718;2023-02-28T01:18:01;213696.59;;;-1.30
68440;BMP180;55421;51.600;5.718;2023-02-28T01:20:27;213678.80;;;-1.30
68440;BMP180;55421;51.600;5.718;2023-02-28T01:22:54;213678.20;;;-1.30
68440;BMP180;55421;51.600;5.718;2023-02-28T01:25:21;213682.00;;;-1.30
68440;BMP180;55421;51.600;5.718;2023-02-28T01:27:50;213692.80;;;-1.30
68440;BMP180;55421;51.600;5.718;2023-02-28T01:30:17;213694.00;;;-1.30
68440;BMP180;55421;51.600;5.718;2023-02-28T01:32:43;213692.20;;;-1.30
68440;BMP180;55421;51.600;5.718;2023-02-28T01:35:10;213691.59;;;-1.30
68440;BMP180;55421;51.600;5.718;2023-02-28T01:37:36;213684.41;;;-1.30
68440;BMP180;55421;51.600;5.718;2023-02-28T01:40:04;213679.20;;;-1.30
68440;BMP180;55421;51.600;5.718;2023-02-28T01:42:30;213667.80;;;-1.30
68440;BMP180;55421;51.600;5.718;2023-02-28T01:45:25;213659.80;;;-1.30
68440;BMP180;55421;51.600;5.718;2023-02-28T01:47:58;213651.41;;;-1.40
68440;BMP180;55421;51.600;5.718;2023-02-28T01:50:33;213640.20;;;-1.40
68440;BMP180;55421;51.600;5.718;2023-02-28T01:53:07;213654.59;;;-1.36
68440;BMP180;55421;51.600;5.718;2023-02-28T01:55:34;213678.20;;;-1.30
68440;BMP180;55421;51.600;5.718;2023-02-28T01:58:05;213720.80;;;-1.20
68440;BMP180;55421;51.600;5.718;2023-02-28T02:00:33;213750.41;;;-1.20
68440;BMP180;55421;51.600;5.718;2023-02-28T02:03:08;213770.80;;;-1.16
68440;BMP180;55421;51.600;5.718;2023-02-28T02:05:39;213777.00;;;-1.10
68440;BMP180;55421;51.600;5.718;2023-02-28T02:08:13;213790.00;;;-1.10
68440;BMP180;55421;51.600;5.718;2023-02-28T02:10:48;213795.80;;;-1.10
68440;BMP180;55421;51.600;5.718;2023-02-28T02:18:58;213768.00;;;-1.18
68440;BMP180;55421;51.600;5.718;2023-02-28T02:25:08;213748.00;;;-1.20
68440;BMP180;55421;51.600;5.718;2023-02-28T02:34:00;213738.41;;;-1.20
68440;BMP180;55421;51.600;5.718;2023-02-28T02:36:33;213725.20;;;-1.20
68440;BMP180;55421;51.600;5.718;2023-02-28T02:39:54;213741.20;;;-1.20
68440;BMP180;55421;51.600;5.718;2023-02-28T02:42:12;213755.20;;;-1.20
68440;BMP180;55421;51.600;5.718;2023-02-28T02:44:48;213775.00;;;-1.12
68440;BMP180;55421;51.600;5.718;2023-02-28T02:47:20;213790.00;;;-1.10
68440;BMP180;55421;51.600;5.718;2023-02-28T02:49:53;213797.41;;;-1.10
68440;BMP180;55421;51.600;5.718;2023-02-28T02:52:32;213803.80;;;-1.10
68440;BMP180;55421;51.600;5.718;2023-02-28T02:55:02;213813.41;;;-1.10
68440;BMP180;55421;51.600;5.718;2023-02-28T02:57:36;213824.41;;;-1.08
68440;BMP180;55421;51.600;5.718;2023-02-28T03:00:05;213846.00;;;-1.00
68440;BMP180;55421;51.600;5.718;2023-02-28T03:02:37;213872.80;;;-1.00
68440;BMP180;55421;51.600;5.718;2023-02-28T03:05:16;213892.80;;;-0.90
68440;BMP180;55421;51.600;5.718;2023-02-28T03:07:44;213910.00;;;-0.90
68440;BMP180;55421;51.600;5.718;2023-02-28T03:10:34;213918.41;;;-0.90
68440;BMP180;55421;51.600;5.718;2023-02-28T03:16:33;213912.41;;;-0.90
68440;BMP180;55421;51.600;5.718;2023-02-28T03:22:03;213932.80;;;-0.90
68440;BMP180;55421;51.600;5.718;2023-02-28T03:24:43;213947.20;;;-0.80
68440;BMP180;55421;51.600;5.718;2023-02-28T03:27:17;213963.00;;;-0.80
68440;BMP180;55421;51.600;5.718;2023-02-28T03:30:09;213969.41;;;-0.80
68440;BMP180;55421;51.600;5.718;2023-02-28T03:32:54;213972.59;;;-0.80
68440;BMP180;55421;51.600;5.718;2023-02-28T03:35:30;213972.20;;;-0.80
68440;BMP180;55421;51.600;5.718;2023-02-28T03:38:13;213966.59;;;-0.80
68440;BMP180;55421;51.600;5.718;2023-02-28T03:40:57;213984.59;;;-0.78
68440;BMP180;55421;51.600;5.718;2023-02-28T03:43:33;214013.41;;;-0.70
68440;BMP180;55421;51.600;5.718;2023-02-28T03:46:06;214030.20;;;-0.70
68440;BMP180;55421;51.600;5.718;2023-02-28T03:48:47;214053.20;;;-0.60
68440;BMP180;55421;51.600;5.718;2023-02-28T03:51:19;214061.20;;;-0.60
68440;BMP180;55421;51.600;5.718;2023-02-28T03:53:54;214068.41;;;-0.60
68440;BMP180;55421;51.600;5.718;2023-02-28T03:56:30;214072.00;;;-0.60
68440;BMP180;55421;51.600;5.718;2023-02-28T04:01:49;214100.00;;;-0.60
68440;BMP180;55421;51.600;5.718;2023-02-28T04:04:17;214118.20;;;-0.50
68440;BMP180;55421;51.600;5.718;2023-02-28T04:06:45;214142.20;;;-0.50
68440;BMP180;55421;51.600;5.718;2023-02-28T04:09:14;214158.59;;;-0.48
68440;BMP180;55421;51.600;5.718;2023-02-28T04:11:49;214164.20;;;-0.40
68440;BMP180;55421;51.600;5.718;2023-02-28T04:14:17;214156.20;;;-0.44
68440;BMP180;55421;51.600;5.718;2023-02-28T04:16:45;214159.80;;;-0.48
68440;BMP180;55421;51.600;5.718;2023-02-28T04:19:13;214152.59;;;-0.50
68440;BMP180;55421;51.600;5.718;2023-02-28T04:21:50;214148.59;;;-0.50
68440;BMP180;55421;51.600;5.718;2023-02-28T04:24:26;214164.20;;;-0.42
68440;BMP180;55421;51.600;5.718;2023-02-28T04:26:56;214194.59;;;-0.40
68440;BMP180;55421;51.600;5.718;2023-02-28T04:29:30;214219.41;;;-0.30
68440;BMP180;55421;51.600;5.718;2023-02-28T04:31:59;214242.00;;;-0.30
68440;BMP180;55421;51.600;5.718;2023-02-28T04:34:29;214252.80;;;-0.30
68440;BMP180;55421;51.600;5.718;2023-02-28T04:36:56;214261.59;;;-0.30
68440;BMP180;55421;51.600;5.718;2023-02-28T04:39:24;214264.41;;;-0.30
68440;BMP180;55421;51.600;5.718;2023-02-28T04:41:51;214258.80;;;-0.30
68440;BMP180;55421;51.600;5.718;2023-02-28T04:44:17;214246.41;;;-0.30
68440;BMP180;55421;51.600;5.718;2023-02-28T04:46:44;214239.20;;;-0.30
68440;BMP180;55421;51.600;5.718;2023-02-28T04:49:12;214242.00;;;-0.30
68440;BMP180;55421;51.600;5.718;2023-02-28T04:51:39;214258.80;;;-0.30
68440;BMP180;55421;51.600;5.718;2023-02-28T04:54:06;214278.00;;;-0.20
68440;BMP180;55421;51.600;5.718;2023-02-28T04:56:33;214279.59;;;-0.20
68440;BMP180;55421;51.600;5.718;2023-02-28T04:59:00;214275.20;;;-0.22
68440;BMP180;55421;51.600;5.718;2023-02-28T05:01:30;214264.00;;;-0.28
68440;BMP180;55421;51.600;5.718;2023-02-28T05:04:00;214250.80;;;-0.30
68440;BMP180;55421;51.600;5.718;2023-02-28T05:06:30;214236.20;;;-0.30
68440;BMP180;55421;51.600;5.718;2023-02-28T05:08:58;214239.00;;;-0.30
68440;BMP180;55421;51.600;5.718;2023-02-28T05:11:30;214250.41;;;-0.30
68440;BMP180;55421;51.600;5.718;2023-02-28T05:14:03;214257.59;;;-0.30
68440;BMP180;55421;51.600;5.718;2023-02-28T05:16:31;214260.41;;;-0.30
68440;BMP180;55421;51.600;5.718;2023-02-28T05:18:59;214257.59;;;-0.30
68440;BMP180;55421;51.600;5.718;2023-02-28T05:21:33;214247.59;;;-0.30
68440;BMP180;55421;51.600;5.718;2023-02-28T05:24:04;214237.59;;;-0.30
68440;BMP180;55421;51.600;5.718;2023-02-28T05:26:35;214233.20;;;-0.30
68440;BMP180;55421;51.600;5.718;2023-02-28T05:29:02;214224.80;;;-0.32
68440;BMP180;55421;51.600;5.718;2023-02-28T05:31:29;214233.20;;;-0.30
68440;BMP180;55421;51.600;5.718;2023-02-28T05:33:55;214249.20;;;-0.30
68440;BMP180;55421;51.600;5.718;2023-02-28T05:36:22;214276.41;;;-0.22
68440;BMP180;55421;51.600;5.718;2023-02-28T05:38:50;214289.20;;;-0.20
68440;BMP180;55421;51.600;5.718;2023-02-28T05:41:18;214298.00;;;-0.20
68440;BMP180;55421;51.600;5.718;2023-02-28T05:43:46;214307.41;;;-0.20
68440;BMP180;55421;51.600;5.718;2023-02-28T05:46:13;214297.00;;;-0.20
68440;BMP180;55421;51.600;5.718;2023-02-28T05:48:41;214290.41;;;-0.20
68440;BMP180;55421;51.600;5.718;2023-02-28T05:51:09;214275.20;;;-0.24
68440;BMP180;55421;51.600;5.718;2023-02-28T05:53:36;214273.20;;;-0.26
68440;BMP180;55421;51.600;5.718;2023-02-28T05:56:04;214289.59;;;-0.20
68440;BMP180;55421;51.600;5.718;2023-02-28T05:58:30;214311.80;;;-0.20
68440;BMP180;55421;51.600;5.718;2023-02-28T06:00:58;214325.41;;;-0.20
68440;BMP180;55421;51.600;5.718;2023-02-28T06:03:26;214329.41;;;-0.16
68440;BMP180;55421;51.600;5.718;2023-02-28T06:05:53;214327.80;;;-0.20
68440;BMP180;55421;51.600;5.718;2023-02-28T06:08:20;214325.00;;;-0.20
68440;BMP180;55421;51.600;5.718;2023-02-28T06:10:47;214313.00;;;-0.20
68440;BMP180;55421;51.600;5.718;2023-02-28T06:13:13;214300.59;;;-0.20
68440;BMP180;55421;51.600;5.718;2023-02-28T06:15:40;214289.59;;;-0.20
68440;BMP180;55421;51.600;5.718;2023-02-28T06:18:07;214299.41;;;-0.20
68440;BMP180;55421;51.600;5.718;2023-02-28T06:20:33;214315.00;;;-0.20
68440;BMP180;55421;51.600;5.718;2023-02-28T06:23:00;214327.80;;;-0.20
68440;BMP180;55421;51.600;5.718;2023-02-28T06:25:27;214322.59;;;-0.20
68440;BMP180;55421;51.600;5.718;2023-02-28T06:27:54;214319.41;;;-0.20
68440;BMP180;55421;51.600;5.718;2023-02-28T06:30:22;214316.20;;;-0.20
68440;BMP180;55421;51.600;5.718;2023-02-28T06:32:54;214299.41;;;-0.20
68440;BMP180;55421;51.600;5.718;2023-02-28T06:35:20;214288.00;;;-0.20
68440;BMP180;55421;51.600;5.718;2023-02-28T06:37:47;214308.80;;;-0.20
68440;BMP180;55421;51.600;5.718;2023-02-28T06:40:14;214331.80;;;-0.18
68440;BMP180;55421;51.600;5.718;2023-02-28T06:42:40;214353.00;;;-0.10
68440;BMP180;55421;51.600;5.718;2023-02-28T06:45:08;214362.20;;;-0.10
68440;BMP180;55421;51.600;5.718;2023-02-28T06:47:37;214359.80;;;-0.10
68440;BMP180;55421;51.600;5.718;2023-02-28T06:50:05;214351.41;;;-0.10
68440;BMP180;55421;51.600;5.718;2023-02-28T06:52:32;214329.41;;;-0.18
68440;BMP180;55421;51.600;5.718;2023-02-28T06:54:59;214308.80;;;-0.20
68440;BMP180;55421;51.600;5.718;2023-02-28T06:57:30;214298.20;;;-0.20
68440;BMP180;55421;51.600;5.718;2023-02-28T07:00:06;214303.59;;;-0.20
68440;BMP180;55421;51.600;5.718;2023-02-28T07:02:36;214323.80;;;-0.20
68440;BMP180;55421;51.600;5.718;2023-02-28T07:05:05;214344.59;;;-0.10
68440;BMP180;55421;51.600;5.718;2023-02-28T07:07:32;214362.20;;;-0.10
68440;BMP180;55421;51.600;5.718;2023-02-28T07:09:59;214381.59;;;-0.04
68440;BMP180;55421;51.600;5.718;2023-02-28T07:12:25;214404.00;;;0.00
68440;BMP180;55421;51.600;5.718;2023-02-28T07:14:52;214431.59;;;0.00
68440;BMP180;55421;51.600;5.718;2023-02-28T07:17:18;214450.00;;;0.10
68440;BMP180;55421;51.600;5.718;2023-02-28T07:19:45;214467.59;;;0.10
68440;BMP180;55421;51.600;5.718;2023-02-28T07:22:11;214486.80;;;0.10
68440;BMP180;55421;51.600;5.718;2023-02-28T07:24:38;214521.00;;;0.20
68440;BMP180;55421;51.600;5.718;2023-02-28T07:27:04;214581.59;;;0.30
68440;BMP180;55421;51.600;5.718;2023-02-28T07:29:31;214616.80;;;0.40
68440;BMP180;55421;51.600;5.718;2023-02-28T07:31:57;214649.00;;;0.40
68440;BMP180;55421;51.600;5.718;2023-02-28T07:34:24;214681.00;;;0.50
68440;BMP180;55421;51.600;5.718;2023-02-28T07:36:55;214698.59;;;0.50
68440;BMP180;55421;51.600;5.718;2023-02-28T07:39:22;214721.41;;;0.58
68440;BMP180;55421;51.600;5.718;2023-02-28T07:41:48;214741.00;;;0.60
68440;BMP180;55421;51.600;5.718;2023-02-28T07:44:15;214757.41;;;0.60
68440;BMP180;55421;51.600;5.718;2023-02-28T07:46:42;214770.59;;;0.62
68440;BMP180;55421;51.600;5.718;2023-02-28T07:49:08;214790.00;;;0.70
68440;BMP180;55421;51.600;5.718;2023-02-28T07:51:34;214819.20;;;0.70
68440;BMP180;55421;51.600;5.718;2023-02-28T07:54:01;214845.00;;;0.74
68440;BMP180;55421;51.600;5.718;2023-02-28T07:56:28;214849.00;;;0.80
68440;BMP180;55421;51.600;5.718;2023-02-28T07:58:54;214817.80;;;0.70
68440;BMP180;55421;51.600;5.718;2023-02-28T08:01:21;214803.20;;;0.70
68440;BMP180;55421;51.600;5.718;2023-02-28T08:03:47;214814.00;;;0.70
68440;BMP180;55421;51.600;5.718;2023-02-28T08:06:21;214835.00;;;0.70
68440;BMP180;55421;51.600;5.718;2023-02-28T08:08:49;214849.00;;;0.80
68440;BMP180;55421;51.600;5.718;2023-02-28T08:11:17;214858.59;;;0.80
68440;BMP180;55421;51.600;5.718;2023-02-28T08:13:45;214854.59;;;0.80
68440;BMP180;55421;51.600;5.718;2023-02-28T08:16:13;214863.00;;;0.80
68440;BMP180;55421;51.600;5.718;2023-02-28T08:18:51;214879.41;;;0.80
68440;BMP180;55421;51.600;5.718;2023-02-28T08:21:20;214885.41;;;0.80
68440;BMP180;55421;51.600;5.718;2023-02-28T08:23:48;214894.59;;;0.84
68440;BMP180;55421;51.600;5.718;2023-02-28T08:26:18;214919.41;;;0.90
68440;BMP180;55421;51.600;5.718;2023-02-28T08:28:46;214933.59;;;0.90
68440;BMP180;55421;51.600;5.718;2023-02-28T08:31:15;214966.41;;;1.00
68440;BMP180;55421;51.600;5.718;2023-02-28T08:33:43;214981.59;;;1.00
68440;BMP180;55421;51.600;5.718;2023-02-28T08:36:11;215000.41;;;1.06
68440;BMP180;55421;51.600;5.718;2023-02-28T08:38:38;215024.00;;;1.10
68440;BMP180;55421;51.600;5.718;2023-02-28T08:41:10;215044.80;;;1.10
68440;BMP180;55421;51.600;5.718;2023-02-28T08:43:38;215079.80;;;1.20
68440;BMP180;55421;51.600;5.718;2023-02-28T08:46:06;215095.20;;;1.20
68440;BMP180;55421;51.600;5.718;2023-02-28T08:48:35;215120.00;;;1.30
68440;BMP180;55421;51.600;5.718;2023-02-28T08:51:17;215138.41;;;1.30
68440;BMP180;55421;51.600;5.718;2023-02-28T08:53:47;215162.41;;;1.30
68440;BMP180;55421;51.600;5.718;2023-02-28T08:56:16;215170.41;;;1.32
68440;BMP180;55421;51.600;5.718;2023-02-28T08:58:44;215185.59;;;1.40
68440;BMP180;55421;51.600;5.718;2023-02-28T09:01:22;215209.00;;;1.40
68440;BMP180;55421;51.600;5.718;2023-02-28T09:03:50;215229.41;;;1.46
68440;BMP180;55421;51.600;5.718;2023-02-28T09:06:19;215248.59;;;1.50
68440;BMP180;55421;51.600;5.718;2023-02-28T09:08:46;215278.20;;;1.50
68440;BMP180;55421;51.600;5.718;2023-02-28T09:11:13;215301.41;;;1.60
68440;BMP180;55421;51.600;5.718;2023-02-28T09:13:40;215331.59;;;1.60
68440;BMP180;55421;51.600;5.718;2023-02-28T09:16:11;215354.80;;;1.70
68440;BMP180;55421;51.600;5.718;2023-02-28T09:18:39;215373.80;;;1.70
68440;BMP180;55421;51.600;5.718;2023-02-28T09:21:09;215397.00;;;1.78
68440;BMP180;55421;51.600;5.718;2023-02-28T09:23:36;215410.59;;;1.80
68440;BMP180;55421;51.600;5.718;2023-02-28T09:26:06;215435.80;;;1.80
68440;BMP180;55421;51.600;5.718;2023-02-28T09:28:33;215466.59;;;1.90
68440;BMP180;55421;51.600;5.718;2023-02-28T09:31:00;215500.00;;;1.90
68440;BMP180;55421;51.600;5.718;2023-02-28T09:33:26;215546.80;;;2.00
68440;BMP180;55421;51.600;5.718;2023-02-28T09:36:00;215575.59;;;2.10
68440;BMP180;55421;51.600;5.718;2023-02-28T09:38:28;215609.00;;;2.10
68440;BMP180;55421;51.600;5.718;2023-02-28T09:41:00;215625.41;;;2.18
68440;BMP180;55421;51.600;5.718;2023-02-28T09:43:34;215666.41;;;2.20
68440;BMP180;55421;51.600;5.718;2023-02-28T09:46:25;215711.20;;;2.30
68440;BMP180;55421;51.600;5.718;2023-02-28T09:48:55;215741.59;;;2.40
68440;BMP180;55421;51.600;5.718;2023-02-28T09:51:39;215761.59;;;2.40
68440;BMP180;55421;51.600;5.718;2023-02-28T09:54:15;215785.80;;;2.40
68440;BMP180;55421;51.600;5.718;2023-02-28T09:59:36;215869.20;;;2.60
68440;BMP180;55421;51.600;5.718;2023-02-28T10:05:11;215954.59;;;2.72
68440;BMP180;55421;51.600;5.718;2023-02-28T10:08:00;216001.80;;;2.80
68440;BMP180;55421;51.600;5.718;2023-02-28T10:13:14;216103.20;;;3.00
68440;BMP180;55421;51.600;5.718;2023-02-28T10:15:46;216146.59;;;3.10
68440;BMP180;55421;51.600;5.718;2023-02-28T10:18:21;216151.41;;;3.10
68440;BMP180;55421;51.600;5.718;2023-02-28T10:20:50;216177.00;;;3.14
68440;BMP180;55421;51.600;5.718;2023-02-28T10:23:30;216191.00;;;3.20
68440;BMP180;55421;51.600;5.718;2023-02-28T10:26:14;216239.59;;;3.28
68440;BMP180;55421;51.600;5.718;2023-02-28T10:28:44;216282.00;;;3.30
68440;BMP180;55421;51.600;5.718;2023-02-28T10:31:19;216296.41;;;3.34
68440;BMP180;55421;51.600;5.718;2023-02-28T10:33:47;216302.41;;;3.40
68440;BMP180;55421;51.600;5.718;2023-02-28T10:36:18;216322.41;;;3.40
68440;BMP180;55421;51.600;5.718;2023-02-28T10:38:46;216343.20;;;3.40
68440;BMP180;55421;51.600;5.718;2023-02-28T10:41:26;216349.41;;;3.44
68440;BMP180;55421;51.600;5.718;2023-02-28T10:44:13;216367.00;;;3.50
68440;BMP180;55421;51.600;5.718;2023-02-28T10:46:42;216417.59;;;3.60
68440;BMP180;55421;51.600;5.718;2023-02-28T10:49:24;216461.20;;;3.64
68440;BMP180;55421;51.600;5.718;2023-02-28T10:51:56;216504.20;;;3.70
68440;BMP180;55421;51.600;5.718;2023-02-28T10:54:36;216512.59;;;3.72
68440;BMP180;55421;51.600;5.718;2023-02-28T10:57:18;216543.41;;;3.80
68440;BMP180;55421;51.600;5.718;2023-02-28T10:59:52;216573.00;;;3.90
68440;BMP180;55421;51.600;5.718;2023-02-28T11:02:36;216600.20;;;3.90
68440;BMP180;55421;51.600;5.718;2023-02-28T11:07:59;216669.41;;;4.00
68440;BMP180;55421;51.600;5.718;2023-02-28T11:10:31;216710.59;;;4.10
68440;BMP180;55421;51.600;5.718;2023-02-28T11:13:01;216715.00;;;4.10
68440;BMP180;55421;51.600;5.718;2023-02-28T11:15:33;216721.00;;;4.10
68440;BMP180;55421;51.600;5.718;2023-02-28T11:18:21;216730.20;;;4.10
68440;BMP180;55421;51.600;5.718;2023-02-28T11:20:51;216737.80;;;4.10
68440;BMP180;55421;51.600;5.718;2023-02-28T11:23:20;216770.41;;;4.20
68440;BMP180;55421;51.600;5.718;2023-02-28T11:25:52;216794.41;;;4.22
68440;BMP180;55421;51.600;5.718;2023-02-28T11:28:41;216794.80;;;4.24
68440;BMP180;55421;51.600;5.718;2023-02-28T11:33:54;216810.80;;;4.30
68440;BMP180;55421;51.600;5.718;2023-02-28T11:36:29;216824.41;;;4.30
68440;BMP180;55421;51.600;5.718;2023-02-28T11:39:07;216850.00;;;4.30
68440;BMP180;55421;51.600;5.718;2023-02-28T11:44:38;216838.41;;;4.30
68440;BMP180;55421;51.600;5.718;2023-02-28T11:47:30;216852.80;;;4.32
68440;BMP180;55421;51.600;5.718;2023-02-28T11:56:41;216951.59;;;4.50
68440;BMP180;55421;51.600;5.718;2023-02-28T11:59:42;216926.41;;;4.50
68440;BMP180;55421;51.600;5.718;2023-02-28T12:03:00;216937.20;;;4.50
68440;BMP180;55421;51.600;5.718;2023-02-28T12:05:34;216976.41;;;4.60
68440;BMP180;55421;51.600;5.718;2023-02-28T12:11:13;216941.59;;;4.50
68440;BMP180;55421;51.600;5.718;2023-02-28T12:16:45;216955.59;;;4.50
68440;BMP180;55421;51.600;5.718;2023-02-28T12:19:31;216996.80;;;4.60
68440;BMP180;55421;51.600;5.718;2023-02-28T12:27:40;217016.80;;;4.60
68440;BMP180;55421;51.600;5.718;2023-02-28T12:30:24;217012.41;;;4.60
68440;BMP180;55421;51.600;5.718;2023-02-28T12:32:58;217033.59;;;4.70
68440;BMP180;55421;51.600;5.718;2023-02-28T12:35:50;217014.00;;;4.60
68440;BMP180;55421;51.600;5.718;2023-02-28T12:38:44;217006.00;;;4.60
68440;BMP180;55421;51.600;5.718;2023-02-28T12:41:22;217001.20;;;4.60
68440;BMP180;55421;51.600;5.718;2023-02-28T12:44:01;217026.00;;;4.62
68440;BMP180;55421;51.600;5.718;2023-02-28T12:46:49;217056.80;;;4.70
68440;BMP180;55421;51.600;5.718;2023-02-28T12:49:39;217075.00;;;4.70
68440;BMP180;55421;51.600;5.718;2023-02-28T12:52:13;217062.59;;;4.70
68440;BMP180;55421;51.600;5.718;2023-02-28T12:54:53;217053.20;;;4.70
68440;BMP180;55421;51.600;5.718;2023-02-28T12:57:41;217080.59;;;4.72
68440;BMP180;55421;51.600;5.718;2023-02-28T13:00:19;217091.00;;;4.80
68440;BMP180;55421;51.600;5.718;2023-02-28T13:03:27;217085.00;;;4.80
68440;BMP180;55421;51.600;5.718;2023-02-28T13:06:21;217089.41;;;4.80
68440;BMP180;55421;51.600;5.718;2023-02-28T13:09:00;217091.00;;;4.78
68440;BMP180;55421;51.600;5.718;2023-02-28T13:11:58;217112.20;;;4.80
68440;BMP180;55421;51.600;5.718;2023-02-28T13:19:34;217176.80;;;4.90
68440;BMP180;55421;51.600;5.718;2023-02-28T13:22:02;217189.59;;;4.96
68440;BMP180;55421;51.600;5.718;2023-02-28T13:29:43;217209.41;;;5.00
68440;BMP180;55421;51.600;5.718;2023-02-28T13:34:41;217189.59;;;4.92
68440;BMP180;55421;51.600;5.718;2023-02-28T13:39:57;217192.20;;;4.90
68440;BMP180;55421;51.600;5.718;2023-02-28T13:47:54;217216.59;;;5.00
68440;BMP180;55421;51.600;5.718;2023-02-28T13:54:03;217217.41;;;5.00
68440;BMP180;55421;51.600;5.718;2023-02-28T14:02:54;217247.00;;;5.00
68440;BMP180;55421;51.600;5.718;2023-02-28T14:05:27;217267.41;;;5.10
68440;BMP180;55421;51.600;5.718;2023-02-28T14:07:59;217253.00;;;5.06
68440;BMP180;55421;51.600;5.718;2023-02-28T14:10:46;217253.41;;;5.04
68440;BMP180;55421;51.600;5.718;2023-02-28T14:16:01;217278.20;;;5.10
68440;BMP180;55421;51.600;5.718;2023-02-28T14:18:32;217259.00;;;5.10
68440;BMP180;55421;51.600;5.718;2023-02-28T14:21:25;217238.59;;;5.00
68440;BMP180;55421;51.600;5.718;2023-02-28T14:24:10;217228.20;;;5.00
68440;BMP180;55421;51.600;5.718;2023-02-28T14:38:29;217259.00;;;5.10
68440;BMP180;55421;51.600;5.718;2023-02-28T14:41:00;217248.59;;;5.00
68440;BMP180;55421;51.600;5.718;2023-02-28T14:43:28;217227.80;;;5.00
68440;BMP180;55421;51.600;5.718;2023-02-28T14:46:01;217222.20;;;5.00
68440;BMP180;55421;51.600;5.718;2023-02-28T14:48:28;217211.00;;;5.00
68440;BMP180;55421;51.600;5.718;2023-02-28T14:50:59;217207.80;;;5.00
68440;BMP180;55421;51.600;5.718;2023-02-28T14:53:29;217212.20;;;5.00
68440;BMP180;55421;51.600;5.718;2023-02-28T14:55:56;217222.20;;;5.00
68440;BMP180;55421;51.600;5.718;2023-02-28T14:58:30;217213.80;;;5.00
68440;BMP180;55421;51.600;5.718;2023-02-28T15:01:01;217194.00;;;4.98
68440;BMP180;55421;51.600;5.718;2023-02-28T15:03:39;217188.00;;;4.96
68440;BMP180;55421;51.600;5.718;2023-02-28T15:06:14;217176.00;;;4.90
68440;BMP180;55421;51.600;5.718;2023-02-28T15:08:41;217164.80;;;4.90
68440;BMP180;55421;51.600;5.718;2023-02-28T15:11:17;217161.59;;;4.90
68440;BMP180;55421;51.600;5.718;2023-02-28T15:13:55;217167.59;;;4.90
68440;BMP180;55421;51.600;5.718;2023-02-28T15:16:41;217151.20;;;4.90
68440;BMP180;55421;51.600;5.718;2023-02-28T15:19:31;217146.20;;;4.88
68440;BMP180;55421;51.600;5.718;2023-02-28T15:22:08;217143.41;;;4.90
68440;BMP180;55421;51.600;5.718;2023-02-28T15:24:46;217140.20;;;4.88
68440;BMP180;55421;51.600;5.718;2023-02-28T15:27:24;217126.20;;;4.80
68440;BMP180;55421;51.600;5.718;2023-02-28T15:29:57;217121.41;;;4.80
68440;BMP180;55421;51.600;5.718;2023-02-28T15:32:31;217112.20;;;4.80
68440;BMP180;55421;51.600;5.718;2023-02-28T15:38:00;217096.59;;;4.80
68440;BMP180;55421;51.600;5.718;2023-02-28T15:40:36;217095.41;;;4.80
68440;BMP180;55421;51.600;5.718;2023-02-28T15:43:26;217088.20;;;4.80
68440;BMP180;55421;51.600;5.718;2023-02-28T15:46:08;217091.00;;;4.78
68440;BMP180;55421;51.600;5.718;2023-02-28T15:48:52;217070.59;;;4.70
68440;BMP180;55421;51.600;5.718;2023-02-28T15:51:33;217059.41;;;4.70
68440;BMP180;55421;51.600;5.718;2023-02-28T15:54:22;217047.41;;;4.70
68440;BMP180;55421;51.600;5.718;2023-02-28T15:56:53;217026.41;;;4.62
68440;BMP180;55421;51.600;5.718;2023-02-28T15:59:27;217004.41;;;4.60
68440;BMP180;55421;51.600;5.718;2023-02-28T16:02:12;216978.00;;;4.60
68440;BMP180;55421;51.600;5.718;2023-02-28T16:05:27;216954.41;;;4.50
68440;BMP180;55421;51.600;5.718;2023-02-28T16:08:15;216926.41;;;4.50
68440;BMP180;55421;51.600;5.718;2023-02-28T16:10:42;216897.20;;;4.40
68440;BMP180;55421;51.600;5.718;2023-02-28T16:13:11;216887.41;;;4.40
68440;BMP180;55421;51.600;5.718;2023-02-28T16:15:43;216872.00;;;4.40
68440;BMP180;55421;51.600;5.718;2023-02-28T16:18:11;216851.59;;;4.30
68440;BMP180;55421;51.600;5.718;2023-02-28T16:20:39;216835.20;;;4.30
68440;BMP180;55421;51.600;5.718;2023-02-28T16:23:05;216815.59;;;4.30